No particular awareness of the weather is required.    There are no Weather-warnings


Meteo18 Weather Cam more information Meteo18 Weather Cam


Thunder radar more information blitzortung!


Rain radar more information rain snow radar


Visit our other weather sites:

Template documentation
and downloads

And another site



Weather Underground History page Text

Daily Summary for May 10, 2017 Units:  English    Metric   Both
« Previous Day
Next Day »
Daily Weekly Monthly Yearly Custom
  High: Low: Average:
Temperature: TemperatureC °F 4.2 °F 14.1 °F
Dew Point: DewpointC °F 2.5 °F 7.7 °F
Humidity: Humidity % 42 % 67 %
Wind Speed: WindSpeedKMH mph 0.0 mph 3.3 mph
Wind Gust: WindSpeedGustKMH mph - -
Wind:- - ESE
Pressure: PressurehPa in 1001.9 in -
Precipitation: 0.0 in    
Historical Graphs
 
 
Tabular Data for May 10, 2017
Time Temperature Dew Point Pressure Wind Wind Speed Wind Gust Humidity Rainfall Rate (Hourly)
TemperatureC °F DewpointC °F PressurehPa in Calm     Humidity % HourlyPrecipMM in
00:02 9.5 °F 5.5 °F 1012.1 in NNE 11.3 mph 16.1 mph 76 % 0.0 in
00:07 9.4 °F 5.4 °F 1011.7 in NE 6.4 mph 12.9 mph 76 % 0.0 in
00:12 9.3 °F 5.3 °F 1012.1 in NE 4.8 mph 12.9 mph 76 % 0.0 in
00:17 9.2 °F 5.4 °F 1011.7 in NE 6.4 mph 12.9 mph 77 % 0.0 in
00:22 9.1 °F 5.5 °F 1012.1 in NE 3.2 mph 12.9 mph 78 % 0.0 in
00:27 8.9 °F 5.3 °F 1012.1 in NE 4.8 mph 12.9 mph 78 % 0.0 in
00:32 8.9 °F 5.3 °F 1011.7 in NE 6.4 mph 12.9 mph 78 % 0.0 in
00:37 8.7 °F 5.3 °F 1011.7 in NE 4.8 mph 17.7 mph 79 % 0.0 in
00:42 8.6 °F 5.2 °F 1011.7 in ENE 6.4 mph 17.7 mph 79 % 0.0 in
00:47 8.6 °F 5.3 °F 1011.7 in NE 8.0 mph 17.7 mph 80 % 0.0 in
00:52 8.5 °F 5.2 °F 1011.7 in NNE 12.9 mph 16.1 mph 80 % 0.0 in
00:57 8.5 °F 5.2 °F 1011.7 in NE 9.7 mph 17.7 mph 80 % 0.0 in
01:02 8.5 °F 5.2 °F 1011.7 in NE 9.7 mph 17.7 mph 80 % 0.0 in
01:07 8.4 °F 5.2 °F 1011.7 in NNE 12.9 mph 16.1 mph 80 % 0.0 in
01:12 8.4 °F 5.2 °F 1011.7 in NNE 11.3 mph 16.1 mph 80 % 0.0 in
01:17 8.4 °F 5.2 °F 1011.7 in NE 8.0 mph 16.1 mph 80 % 0.0 in
01:22 8.3 °F 5.1 °F 1011.4 in NE 3.2 mph 14.5 mph 80 % 0.0 in
01:27 8.3 °F 5.2 °F 1011.4 in NNE 8.0 mph 14.5 mph 81 % 0.0 in
01:32 8.3 °F 5.2 °F 1011.4 in NNE 11.3 mph 14.5 mph 81 % 0.0 in
01:37 8.2 °F 5.1 °F 1011.4 in ENE 8.0 mph 14.5 mph 81 % 0.0 in
01:42 8.1 °F 5.0 °F 1011.4 in NE 8.0 mph 16.1 mph 81 % 0.0 in
01:47 8.1 °F 5.0 °F 1011.4 in NNE 8.0 mph 16.1 mph 81 % 0.0 in
01:52 8.0 °F 5.1 °F 1011.4 in NE 12.9 mph 12.9 mph 82 % 0.0 in
01:57 7.9 °F 5.0 °F 1011.1 in NE 6.4 mph 14.5 mph 82 % 0.0 in
02:02 7.8 °F 4.9 °F 1011.1 in NNE 4.8 mph 14.5 mph 82 % 0.0 in
02:12 7.7 °F 4.8 °F 1011.1 in ENE 4.8 mph 11.3 mph 82 % 0.0 in
02:17 7.7 °F 4.8 °F 1011.1 in NE 4.8 mph 11.3 mph 82 % 0.0 in
02:22 7.6 °F 4.7 °F 1010.7 in NNE 6.4 mph 11.3 mph 82 % 0.0 in
02:27 7.6 °F 4.7 °F 1010.7 in NE 8.0 mph 9.7 mph 82 % 0.0 in
02:32 7.8 °F 4.7 °F 1010.7 in NNE 3.2 mph 12.9 mph 81 % 0.0 in
02:42 7.8 °F 4.6 °F 1010.7 in ENE 6.4 mph 12.9 mph 80 % 0.0 in
02:47 7.8 °F 4.6 °F 1010.4 in NNE 8.0 mph 11.3 mph 80 % 0.0 in
02:57 7.8 °F 4.6 °F 1010.4 in NE 6.4 mph 11.3 mph 80 % 0.0 in
03:02 7.8 °F 4.4 °F 1010.4 in NE 6.4 mph 11.3 mph 79 % 0.0 in
03:07 7.8 °F 4.4 °F 1010.4 in NE 4.8 mph 11.3 mph 79 % 0.0 in
03:12 7.7 °F 4.3 °F 1010.4 in NE 3.2 mph 9.7 mph 79 % 0.0 in
03:17 7.6 °F 4.2 °F 1010.4 in ENE 3.2 mph 9.7 mph 79 % 0.0 in
03:22 7.6 °F 4.4 °F 1010.4 in NE 3.2 mph 9.7 mph 80 % 0.0 in
03:27 7.4 °F 4.2 °F 1010.0 in NNE 3.2 mph 6.4 mph 80 % 0.0 in
03:32 7.3 °F 4.1 °F 1010.0 in NE 3.2 mph 6.4 mph 80 % 0.0 in
03:37 7.1 °F 4.1 °F 1010.0 in Calm   4.8 mph 81 % 0.0 in
03:42 6.8 °F 3.9 °F 1010.0 in North 1.6 mph 4.8 mph 82 % 0.0 in
03:47 6.7 °F 3.8 °F 1010.0 in Calm   3.2 mph 82 % 0.0 in
03:52 6.6 °F 3.7 °F 1010.0 in Calm   4.8 mph 82 % 0.0 in
03:57 6.6 °F 3.9 °F 1010.0 in Calm   4.8 mph 83 % 0.0 in
04:02 6.5 °F 3.8 °F 1010.0 in NNW 1.6 mph 4.8 mph 83 % 0.0 in
04:07 6.4 °F 3.7 °F 1010.0 in Calm   4.8 mph 83 % 0.0 in
04:12 6.2 °F 3.5 °F 1010.0 in Calm   3.2 mph 83 % 0.0 in
04:17 6.1 °F 3.6 °F 1009.7 in Calm   3.2 mph 84 % 0.0 in
04:22 6.0 °F 3.5 °F 1009.7 in North 4.8 mph 4.8 mph 84 % 0.0 in
04:27 5.9 °F 3.4 °F 1009.7 in North 1.6 mph 6.4 mph 84 % 0.0 in
04:32 5.8 °F 3.5 °F 1009.7 in NE 3.2 mph 6.4 mph 85 % 0.0 in
04:37 5.8 °F 3.5 °F 1009.4 in Calm   4.8 mph 85 % 0.0 in
04:42 5.7 °F 3.4 °F 1009.7 in Calm   4.8 mph 85 % 0.0 in
04:47 5.5 °F 3.0 °F 1009.4 in Calm   4.8 mph 84 % 0.0 in
04:52 5.2 °F 2.9 °F 1009.4 in Calm   4.8 mph 85 % 0.0 in
04:57 5.1 °F 3.0 °F 1009.4 in NW 1.6 mph 1.6 mph 86 % 0.0 in
05:02 4.9 °F 2.9 °F 1009.4 in NW 1.6 mph 1.6 mph 87 % 0.0 in
05:12 4.8 °F 2.7 °F 1009.4 in NW 1.6 mph 1.6 mph 86 % 0.0 in
05:17 4.6 °F 2.9 °F 1009.0 in NW 1.6 mph 3.2 mph 89 % 0.0 in
05:27 4.8 °F 3.0 °F 1008.7 in Calm   3.2 mph 88 % 0.0 in
05:32 4.7 °F 2.9 °F 1008.7 in North 1.6 mph 3.2 mph 88 % 0.0 in
05:37 4.7 °F 2.9 °F 1008.7 in Calm   4.8 mph 88 % 0.0 in
05:42 4.4 °F 2.6 °F 1008.7 in Calm   4.8 mph 88 % 0.0 in
05:47 4.2 °F 2.5 °F 1008.7 in Calm   4.8 mph 89 % 0.0 in
05:52 4.3 °F 2.8 °F 1008.7 in NW 1.6 mph 4.8 mph 90 % 0.0 in
05:57 4.6 °F 2.9 °F 1008.7 in NW 1.6 mph 3.2 mph 89 % 0.0 in
06:02 4.7 °F 2.9 °F 1008.7 in Calm   3.2 mph 88 % 0.0 in
06:12 4.4 °F 2.7 °F 1008.4 in NW 1.6 mph 3.2 mph 89 % 0.0 in
06:17 4.4 °F 2.7 °F 1008.4 in Calm   1.6 mph 89 % 0.0 in
06:22 4.6 °F 2.9 °F 1008.4 in Calm   1.6 mph 89 % 0.0 in
06:32 4.6 °F 2.9 °F 1008.4 in Calm   1.6 mph 89 % 0.0 in
06:42 4.8 °F 3.1 °F 1008.4 in Calm   1.6 mph 89 % 0.0 in
06:52 5.1 °F 3.3 °F 1008.4 in Calm   1.6 mph 88 % 0.0 in
07:02 5.4 °F 3.4 °F 1008.4 in NNE 1.6 mph 1.6 mph 87 % 0.0 in
07:07 5.7 °F 3.7 °F 1008.0 in Calm   3.2 mph 87 % 0.0 in
07:12 5.9 °F 3.6 °F 1008.0 in Calm   3.2 mph 85 % 0.0 in
07:17 5.9 °F 3.6 °F 1008.0 in Calm   1.6 mph 85 % 0.0 in
07:22 5.8 °F 3.5 °F 1008.0 in Calm   1.6 mph 85 % 0.0 in
07:32 6.3 °F 4.1 °F 1008.0 in Calm   3.2 mph 86 % 0.0 in
07:37 6.5 °F 4.0 °F 1008.0 in NE 3.2 mph 3.2 mph 84 % 0.0 in
07:42 6.6 °F 4.1 °F 1008.0 in NNE 4.8 mph 4.8 mph 84 % 0.0 in
07:47 6.6 °F 4.1 °F 1008.0 in East 3.2 mph 8.0 mph 84 % 0.0 in
07:52 6.9 °F 4.4 °F 1008.0 in NE 4.8 mph 8.0 mph 84 % 0.0 in
07:57 7.2 °F 4.5 °F 1008.0 in NE 3.2 mph 9.7 mph 83 % 0.0 in
08:02 7.4 °F 4.5 °F 1008.0 in East 1.6 mph 9.7 mph 82 % 0.0 in
08:07 7.7 °F 4.6 °F 1008.0 in Calm   8.0 mph 81 % 0.0 in
08:12 7.8 °F 4.4 °F 1008.0 in East 1.6 mph 8.0 mph 79 % 0.0 in
08:17 8.0 °F 4.8 °F 1008.0 in ENE 4.8 mph 4.8 mph 80 % 0.0 in
08:22 8.2 °F 5.1 °F 1007.7 in Calm   4.8 mph 81 % 0.0 in
08:27 8.3 °F 5.1 °F 1007.7 in NNE 3.2 mph 4.8 mph 80 % 0.0 in
08:32 8.4 °F 5.2 °F 1007.7 in NE 3.2 mph 4.8 mph 80 % 0.0 in
08:37 8.4 °F 5.3 °F 1007.7 in ENE 3.2 mph 8.0 mph 81 % 0.0 in
08:42 8.7 °F 5.4 °F 1007.7 in NE 4.8 mph 8.0 mph 80 % 0.0 in
08:52 9.0 °F 5.9 °F 1007.3 in Calm   9.7 mph 81 % 0.0 in
08:57 9.3 °F 5.8 °F 1007.3 in NE 3.2 mph 8.0 mph 79 % 0.0 in
09:02 9.7 °F 6.0 °F 1007.3 in NE 3.2 mph 8.0 mph 78 % 0.0 in
09:12 10.2 °F 6.0 °F 1007.3 in East 3.2 mph 6.4 mph 75 % 0.0 in
09:17 10.3 °F 6.3 °F 1007.3 in NE 4.8 mph 8.0 mph 76 % 0.0 in
09:22 10.8 °F 6.5 °F 1007.3 in East 3.2 mph 8.0 mph 75 % 0.0 in
09:27 11.2 °F 6.7 °F 1007.3 in ENE 4.8 mph 8.0 mph 74 % 0.0 in
09:32 11.6 °F 6.5 °F 1007.3 in ESE 8.0 mph 8.0 mph 71 % 0.0 in
09:42 11.5 °F 6.0 °F 1007.3 in Calm   14.5 mph 69 % 0.0 in
09:47 11.7 °F 6.2 °F 1007.3 in East 4.8 mph 14.5 mph 69 % 0.0 in
09:52 11.7 °F 6.4 °F 1007.3 in East 4.8 mph 14.5 mph 70 % 0.0 in
09:57 11.9 °F 6.4 °F 1007.3 in East 1.6 mph 12.9 mph 69 % 0.0 in
10:02 12.2 °F 6.7 °F 1007.3 in East 4.8 mph 12.9 mph 69 % 0.0 in
10:12 12.7 °F 6.7 °F 1007.0 in NE 4.8 mph 14.5 mph 67 % 0.0 in
10:17 13.1 °F 7.3 °F 1007.0 in East 3.2 mph 14.5 mph 68 % 0.0 in
10:22 13.2 °F 7.2 °F 1007.0 in SSE 3.2 mph 14.5 mph 67 % 0.0 in
10:32 13.3 °F 7.5 °F 1006.7 in East 8.0 mph 11.3 mph 68 % 0.0 in
10:37 13.7 °F 8.1 °F 1006.7 in ENE 3.2 mph 11.3 mph 69 % 0.0 in
10:42 14.2 °F 8.6 °F 1006.7 in SE 3.2 mph 11.3 mph 69 % 0.0 in
10:47 14.6 °F 7.9 °F 1006.7 in ESE 6.4 mph 14.5 mph 64 % 0.0 in
10:52 14.6 °F 7.6 °F 1006.7 in ESE 1.6 mph 14.5 mph 63 % 0.0 in
10:57 14.7 °F 8.2 °F 1006.7 in SE 4.8 mph 8.0 mph 65 % 0.0 in
11:02 14.8 °F 7.6 °F 1006.7 in East 6.4 mph 8.0 mph 62 % 0.0 in
11:07 14.9 °F 8.1 °F 1006.3 in ENE 6.4 mph 16.1 mph 64 % 0.0 in
11:12 15.1 °F 7.6 °F 1006.7 in East 11.3 mph 16.1 mph 61 % 0.0 in
11:17 15.4 °F 7.9 °F 1006.3 in East 6.4 mph 16.1 mph 61 % 0.0 in
11:22 15.8 °F 8.8 °F 1006.7 in ENE 3.2 mph 16.1 mph 63 % 0.0 in
11:32 16.4 °F 8.4 °F 1006.7 in SE 6.4 mph 14.5 mph 59 % 0.0 in
11:37 16.5 °F 8.2 °F 1006.3 in East 8.0 mph 9.7 mph 58 % 0.0 in
11:42 16.4 °F 8.1 °F 1006.3 in ESE 6.4 mph 11.3 mph 58 % 0.0 in
11:47 16.8 °F 8.5 °F 1006.3 in SE 9.7 mph 12.9 mph 58 % 0.0 in
11:52 17.1 °F 8.5 °F 1006.3 in East 4.8 mph 14.5 mph 57 % 0.0 in
11:57 17.1 °F 9.0 °F 1006.3 in SE 1.6 mph 14.5 mph 59 % 0.0 in
12:02 17.2 °F 8.3 °F 1006.3 in ESE 6.4 mph 14.5 mph 56 % 0.0 in
12:07 17.4 °F 9.3 °F 1006.3 in ESE 1.6 mph 11.3 mph 59 % 0.0 in
12:12 17.4 °F 7.7 °F 1006.0 in Calm   11.3 mph 53 % 0.0 in
12:17 17.4 °F 8.3 °F 1006.0 in NE 3.2 mph 12.9 mph 55 % 0.0 in
12:22 17.7 °F 8.5 °F 1006.0 in ESE 8.0 mph 12.9 mph 55 % 0.0 in
12:32 17.7 °F 9.1 °F 1006.0 in East 8.0 mph 11.3 mph 57 % 0.0 in
12:42 18.0 °F 8.3 °F 1006.0 in SE 1.6 mph 12.9 mph 53 % 0.0 in
12:47 18.3 °F 8.8 °F 1005.6 in NE 1.6 mph 12.9 mph 54 % 0.0 in
12:52 18.4 °F 9.5 °F 1005.6 in SE 6.4 mph 12.9 mph 56 % 0.0 in
12:57 18.5 °F 9.3 °F 1005.6 in SSE 6.4 mph 11.3 mph 55 % 0.0 in
13:02 18.8 °F 10.1 °F 1005.6 in East 3.2 mph 12.9 mph 57 % 0.0 in
13:07 18.7 °F 9.5 °F 1005.6 in East 3.2 mph 12.9 mph 55 % 0.0 in
13:12 19.3 °F 10.3 °F 1005.6 in ESE 1.6 mph 12.9 mph 56 % 0.0 in
13:17 19.2 °F 9.4 °F 1005.6 in SE 1.6 mph 12.9 mph 53 % 0.0 in
13:22 18.9 °F 9.7 °F 1005.3 in ESE 3.2 mph 16.1 mph 55 % 0.0 in
13:27 19.3 °F 9.2 °F 1005.3 in SE 4.8 mph 16.1 mph 52 % 0.0 in
13:32 19.3 °F 9.2 °F 1005.3 in ESE 4.8 mph 16.1 mph 52 % 0.0 in
13:37 19.4 °F 9.0 °F 1005.3 in ENE 3.2 mph 12.9 mph 51 % 0.0 in
13:42 19.5 °F 9.4 °F 1005.0 in ENE 6.4 mph 12.9 mph 52 % 0.0 in
13:47 19.8 °F 10.2 °F 1005.3 in East 1.6 mph 11.3 mph 54 % 0.0 in
13:52 20.2 °F 9.7 °F 1005.0 in Calm   11.3 mph 51 % 0.0 in
13:57 20.0 °F 9.3 °F 1005.0 in SSE 8.0 mph 9.7 mph 50 % 0.0 in
14:02 19.9 °F 9.5 °F 1005.0 in ENE 9.7 mph 9.7 mph 51 % 0.0 in
14:12 20.4 °F 8.7 °F 1005.0 in SSE 3.2 mph 11.3 mph 47 % 0.0 in
14:17 20.7 °F 9.9 °F 1005.0 in SE 6.4 mph 11.3 mph 50 % 0.0 in
14:22 20.7 °F 9.0 °F 1005.0 in WSW 3.2 mph 12.9 mph 47 % 0.0 in
14:27 20.9 °F 10.7 °F 1005.0 in Calm   12.9 mph 52 % 0.0 in
14:32 21.2 °F 8.5 °F 1005.0 in Calm   12.9 mph 44 % 0.0 in
14:42 21.3 °F 9.8 °F 1004.6 in SSE 11.3 mph 17.7 mph 48 % 0.0 in
14:47 21.2 °F 10.1 °F 1004.6 in SSW 4.8 mph 17.7 mph 49 % 0.0 in
14:52 21.0 °F 9.6 °F 1004.6 in South 8.0 mph 17.7 mph 48 % 0.0 in
14:57 20.9 °F 8.5 °F 1004.6 in South 6.4 mph 17.7 mph 45 % 0.0 in
15:02 20.8 °F 9.1 °F 1004.6 in SSE 6.4 mph 17.7 mph 47 % 0.0 in
15:07 20.7 °F 9.3 °F 1004.3 in ESE 6.4 mph 17.7 mph 48 % 0.0 in
15:12 20.8 °F 9.1 °F 1004.3 in SSE 3.2 mph 17.7 mph 47 % 0.0 in
15:17 21.1 °F 9.0 °F 1004.3 in SE 3.2 mph 16.1 mph 46 % 0.0 in
15:22 21.3 °F 8.9 °F 1004.3 in SE 3.2 mph 9.7 mph 45 % 0.0 in
15:32 21.2 °F 10.7 °F 1004.3 in ENE 3.2 mph 11.3 mph 51 % 0.0 in
15:42 21.2 °F 9.8 °F 1004.3 in South 3.2 mph 11.3 mph 48 % 0.0 in
15:47 20.9 °F 9.8 °F 1004.3 in East 3.2 mph 9.7 mph 49 % 0.0 in
15:57 21.0 °F 11.1 °F 1003.9 in ENE 3.2 mph 9.7 mph 53 % 0.0 in
16:02 21.1 °F 11.1 °F 1003.9 in East 4.8 mph 9.7 mph 53 % 0.0 in
16:07 21.0 °F 10.2 °F 1003.9 in East 1.6 mph 9.7 mph 50 % 0.0 in
16:12 21.0 °F 10.2 °F 1003.9 in ENE 4.8 mph 9.7 mph 50 % 0.0 in
16:17 20.8 °F 9.7 °F 1003.9 in East 1.6 mph 12.9 mph 49 % 0.0 in
16:22 20.9 °F 9.8 °F 1003.9 in Calm   12.9 mph 49 % 0.0 in
16:32 21.2 °F 10.4 °F 1003.9 in ENE 3.2 mph 9.7 mph 50 % 0.0 in
16:42 21.8 °F 11.5 °F 1003.6 in SE 1.6 mph 6.4 mph 52 % 0.0 in
16:47 21.7 °F 10.8 °F 1003.6 in ENE 6.4 mph 11.3 mph 50 % 0.0 in
16:52 21.4 °F 11.7 °F 1003.6 in East 3.2 mph 11.3 mph 54 % 0.0 in
16:57 21.5 °F 11.2 °F 1003.6 in East 1.6 mph 11.3 mph 52 % 0.0 in
17:02 21.8 °F 11.8 °F 1003.6 in Calm   9.7 mph 53 % 0.0 in
17:07 22.0 °F 11.7 °F 1003.6 in ESE 4.8 mph 8.0 mph 52 % 0.0 in
17:12 22.0 °F 11.7 °F 1003.6 in SSE 1.6 mph 11.3 mph 52 % 0.0 in
17:17 22.0 °F 11.4 °F 1003.6 in ESE 3.2 mph 11.3 mph 51 % 0.0 in
17:22 21.9 °F 11.3 °F 1003.6 in ESE 6.4 mph 8.0 mph 51 % 0.0 in
17:27 21.7 °F 12.0 °F 1003.3 in East 1.6 mph 8.0 mph 54 % 0.0 in
17:32 21.8 °F 11.8 °F 1003.3 in Calm   8.0 mph 53 % 0.0 in
17:37 21.9 °F 11.0 °F 1003.3 in Calm   8.0 mph 50 % 0.0 in
17:42 22.1 °F 10.9 °F 1003.3 in SW 1.6 mph 8.0 mph 49 % 0.0 in
17:47 22.2 °F 10.7 °F 1003.3 in SW 6.4 mph 8.0 mph 48 % 0.0 in
17:52 22.1 °F 9.6 °F 1003.3 in SE 3.2 mph 9.7 mph 45 % 0.0 in
17:57 22.1 °F 9.3 °F 1003.3 in South 3.2 mph 11.3 mph 44 % 0.0 in
18:02 22.2 °F 9.0 °F 1003.3 in South 8.0 mph 11.3 mph 43 % 0.0 in
18:12 22.0 °F 8.8 °F 1003.3 in SE 3.2 mph 9.7 mph 43 % 0.0 in
18:17 21.9 °F 9.4 °F 1002.9 in Calm   11.3 mph 45 % 0.0 in
18:22 22.0 °F 8.8 °F 1002.9 in WSW 1.6 mph 11.3 mph 43 % 0.0 in
18:27 22.2 °F 9.4 °F 1002.9 in WSW 3.2 mph 4.8 mph 44 % 0.0 in
18:32 22.2 °F 9.0 °F 1002.9 in West 1.6 mph 4.8 mph 43 % 0.0 in
18:37 22.5 °F 9.6 °F 1002.9 in WSW 4.8 mph 6.4 mph 44 % 0.0 in
18:42 22.3 °F 9.5 °F 1002.9 in SW 3.2 mph 6.4 mph 44 % 0.0 in
18:47 22.5 °F 9.6 °F 1002.9 in Calm   6.4 mph 44 % 0.0 in
18:52 22.8 °F 9.6 °F 1002.9 in WNW 3.2 mph 6.4 mph 43 % 0.0 in
18:57 22.5 °F 8.9 °F 1002.6 in SW 3.2 mph 4.8 mph 42 % 0.0 in
19:02 22.3 °F 9.8 °F 1002.6 in Calm   4.8 mph 45 % 0.0 in
19:07 22.3 °F 9.5 °F 1002.6 in Calm   4.8 mph 44 % 0.0 in
19:12 22.1 °F 9.6 °F 1002.6 in Calm   3.2 mph 45 % 0.0 in
19:17 21.7 °F 9.6 °F 1002.6 in Calm     46 % 0.0 in
19:22 21.7 °F 8.9 °F 1002.3 in Calm     44 % 0.0 in
19:27 21.6 °F 9.2 °F 1002.3 in Calm     45 % 0.0 in
19:37 21.2 °F 9.8 °F 1002.3 in Calm     48 % 0.0 in
19:42 21.1 °F 10.3 °F 1002.3 in Calm     50 % 0.0 in
19:47 21.0 °F 9.6 °F 1002.3 in Calm     48 % 0.0 in
19:52 21.1 °F 9.3 °F 1002.3 in Calm     47 % 0.0 in
19:57 20.9 °F 9.8 °F 1002.3 in Calm     49 % 0.0 in
20:02 20.7 °F 9.3 °F 1002.3 in Calm     48 % 0.0 in
20:07 20.6 °F 9.5 °F 1002.3 in Calm     49 % 0.0 in
20:12 20.5 °F 9.1 °F 1002.3 in Calm     48 % 0.0 in
20:17 20.4 °F 9.6 °F 1002.3 in Calm     50 % 0.0 in
20:22 20.5 °F 10.3 °F 1002.3 in Calm     52 % 0.0 in
20:27 20.7 °F 10.5 °F 1002.3 in Calm     52 % 0.0 in
20:32 20.7 °F 9.6 °F 1001.9 in Calm     49 % 0.0 in
20:37 20.3 °F 11.0 °F 1001.9 in Calm     55 % 0.0 in
20:47 19.3 °F 12.3 °F 1002.3 in SSE 6.4 mph 6.4 mph 64 % 0.0 in
20:52 18.8 °F 12.1 °F 1002.3 in East 4.8 mph 6.4 mph 65 % 0.0 in
20:57 18.4 °F 11.5 °F 1002.3 in East 4.8 mph 11.3 mph 64 % 0.0 in
21:02 18.1 °F 11.6 °F 1002.3 in ENE 9.7 mph 11.3 mph 66 % 0.0 in
21:07 17.7 °F 11.9 °F 1002.3 in NE 3.2 mph 11.3 mph 69 % 0.0 in
21:12 17.3 °F 12.2 °F 1002.3 in NE 4.8 mph 9.7 mph 72 % 0.0 in
21:17 16.9 °F 12.4 °F 1002.3 in ENE 4.8 mph 9.7 mph 75 % 0.0 in
21:22 16.8 °F 12.3 °F 1002.3 in ENE 1.6 mph 9.7 mph 75 % 0.0 in
21:27 16.7 °F 12.4 °F 1002.3 in ENE 1.6 mph 9.7 mph 76 % 0.0 in
21:32 16.8 °F 12.1 °F 1002.6 in SSW 3.2 mph 19.3 mph 74 % 0.0 in
21:37 17.7 °F 11.5 °F 1002.6 in SW 11.3 mph 19.3 mph 67 % 0.0 in
21:42 17.7 °F 11.7 °F 1002.6 in West 3.2 mph 19.3 mph 68 % 0.0 in
21:47 17.6 °F 12.1 °F 1002.6 in West 4.8 mph 14.5 mph 70 % 0.0 in
21:52 17.4 °F 12.1 °F 1002.6 in West 4.8 mph 11.3 mph 71 % 0.0 in
21:57 17.3 °F 12.2 °F 1002.6 in West 3.2 mph 9.7 mph 72 % 0.0 in
22:02 17.2 °F 12.1 °F 1002.6 in West 1.6 mph 6.4 mph 72 % 0.0 in
22:07 17.0 °F 12.1 °F 1002.6 in West 3.2 mph 6.4 mph 73 % 0.0 in
22:12 16.9 °F 12.2 °F 1002.6 in West 3.2 mph 8.0 mph 74 % 0.0 in
22:17 16.8 °F 12.1 °F 1002.6 in WSW 3.2 mph 8.0 mph 74 % 0.0 in
22:22 16.7 °F 12.0 °F 1002.6 in WSW 1.6 mph 8.0 mph 74 % 0.0 in
22:27 16.7 °F 12.0 °F 1002.6 in WSW 3.2 mph 8.0 mph 74 % 0.0 in
22:32 16.6 °F 11.9 °F 1002.6 in Calm   4.8 mph 74 % 0.0 in
22:37 16.6 °F 11.9 °F 1002.6 in West 1.6 mph 4.8 mph 74 % 0.0 in
22:42 16.6 °F 11.9 °F 1002.6 in Calm   3.2 mph 74 % 0.0 in
22:47 16.5 °F 11.8 °F 1002.6 in Calm   1.6 mph 74 % 0.0 in
22:52 16.4 °F 11.8 °F 1002.6 in Calm   1.6 mph 74 % 0.0 in
22:57 16.3 °F 11.9 °F 1002.6 in Calm   1.6 mph 75 % 0.0 in
23:02 16.2 °F 12.0 °F 1002.6 in Calm   1.6 mph 76 % 0.0 in
23:07 15.9 °F 12.1 °F 1002.6 in Calm   3.2 mph 78 % 0.0 in
23:12 15.6 °F 12.2 °F 1002.6 in Calm   3.2 mph 80 % 0.0 in
23:17 15.2 °F 12.0 °F 1002.6 in Calm   3.2 mph 81 % 0.0 in
23:22 15.0 °F 12.1 °F 1002.6 in Calm   3.2 mph 83 % 0.0 in
23:32 14.4 °F 11.7 °F 1002.6 in Calm   3.2 mph 84 % 0.0 in
23:37 14.3 °F 11.8 °F 1002.6 in Calm   3.2 mph 85 % 0.0 in
23:42 14.2 °F 11.7 °F 1002.6 in Calm   3.2 mph 85 % 0.0 in
23:47 14.0 °F 11.7 °F 1002.6 in Calm   1.6 mph 86 % 0.0 in
23:52 13.9 °F 11.8 °F 1002.6 in Calm   1.6 mph 87 % 0.0 in
23:57 13.8 °F 11.7 °F 1002.6 in Calm   1.6 mph 87 % 0.0 in
Meteo18
Compliments of Weather Underground - 4 mb

Script developed by  Jim McMurry - jmcmurry@mwt.net Adapted for the template by  Wim van der Kuil - Leuven-Template.eu

You find our weather info also at:

European Weather Network

Weather Underground

Equipment we use:

Weather-station
Davis Vue

Weather-program
Meteobridge

Weather-server
Raspberry PI 2 B+

Provider
1 and 1

Davis Vue

Meteobridge

Raspberry PI 2 B+

1 and 1